Terminal Aerodrome Forecast
Issued by NWS

Home | Current Version | Previous Version | Graphics & Text | Print | Product List | Glossary Off
Versions: 1 2 3 4 5 6 7 8 9 10 11 12 13 14 15 16 17 18 19 20 21 22 23 24 25 26 27 28 29 30 31 32 33 34 35

000
FTUS43 KLOT 312300
TAFDPA
TAF
KDPA 312320Z 0100/0124 35020G30KT P6SM OVC050
     FM010200 35017G29KT P6SM VCSH OVC040
      TEMPO 0104/0108 5SM -SHSN OVC025
     FM010800 35012KT P6SM SCT025
     FM011400 01011G17KT P6SM OVC025
     FM011700 02011KT P6SM SCT035=

USA.gov is the U.S. government's official web portal to all federal, state and local government web resources and services.